Time;durP1;ratioP1;P1;durP2;ratioP2;P2;SDS_P1;SDS_P2;PMS_P1;PMS_P2;Temp;Humidity;BMP_temperature;BMP_pressure;BME280_temperature;BME280_humidity;BME280_pressure;Samples;Min_cycle;Max_cycle;Signal;HPM_P1;HPM_P2
2022/11/12 00:03:01;;;;;;;7.77;5.63;;;;;;;10.42;87.66;103126.91;6168669;28;20253;-75
2022/11/12 00:06:40;;;;;;;11.33;6.97;;;;;;;10.35;88.47;103109.28;6183671;28;20225;-75
2022/11/12 00:10:19;;;;;;;9.37;5.57;;;;;;;10.32;87.99;103113.06;6168532;28;20225;-74
2022/11/12 00:13:59;;;;;;;9.33;5.47;;;;;;;10.39;87.14;103116.25;6177435;28;20226;-75
2022/11/12 00:17:39;;;;;;;8.53;6.33;;;;;;;10.32;87.80;103110.34;6171450;28;20245;-75
2022/11/12 00:21:19;;;;;;;9.17;6.30;;;;;;;10.31;87.17;103118.50;6163546;28;20273;-76
2022/11/12 00:24:59;;;;;;;9.30;6.07;;;;;;;10.52;86.96;103121.88;6162114;28;20242;-75
2022/11/12 00:28:38;;;;;;;6.77;5.40;;;;;;;10.55;86.06;103122.63;6182418;28;20599;-75
2022/11/12 00:32:18;;;;;;;7.30;6.03;;;;;;;10.62;85.67;103121.31;6180162;28;20229;-76
2022/11/12 00:36:00;;;;;;;8.27;5.33;;;;;;;10.81;84.74;103132.00;6173921;28;20229;-76
2022/11/12 00:39:39;;;;;;;7.20;4.97;;;;;;;10.80;83.56;103131.16;6176794;28;20233;-76
2022/11/12 00:43:18;;;;;;;7.10;5.00;;;;;;;10.42;84.31;103116.13;6174702;28;20229;-76
2022/11/12 00:46:58;;;;;;;5.50;4.70;;;;;;;10.50;84.33;103116.59;6175815;28;20261;-75
2022/11/12 00:50:37;;;;;;;7.33;5.70;;;;;;;10.39;84.75;103102.78;6172213;28;20244;-75
2022/11/12 00:54:18;;;;;;;11.03;5.90;;;;;;;10.25;85.44;103095.44;6184619;28;20229;-76
2022/11/12 00:57:58;;;;;;;7.43;5.07;;;;;;;10.29;85.11;103098.84;6174809;28;20233;-75
2022/11/12 01:01:38;;;;;;;8.03;6.80;;;;;;;10.33;84.57;103098.59;6175679;28;20264;-75
2022/11/12 01:05:17;;;;;;;5.20;4.43;;;;;;;10.27;84.58;103104.31;6165989;28;20241;-75
2022/11/12 01:08:57;;;;;;;5.73;5.23;;;;;;;10.29;84.89;103113.19;6190783;28;20552;-75
2022/11/12 01:12:38;;;;;;;6.27;4.30;;;;;;;10.32;84.43;103101.38;6184548;28;20303;-74
2022/11/12 01:16:20;;;;;;;5.60;5.03;;;;;;;10.33;84.92;103105.81;6165214;28;20535;-74
2022/11/12 01:20:00;;;;;;;7.53;5.03;;;;;;;10.38;84.33;103095.66;6174798;28;20531;-76
2022/11/12 01:23:41;;;;;;;6.60;5.27;;;;;;;10.37;84.60;103096.59;6166544;28;20229;-75
2022/11/12 01:27:21;;;;;;;6.60;4.70;;;;;;;10.36;84.46;103097.56;6186254;28;20233;-76
2022/11/12 01:31:13;;;;;;;6.10;4.60;;;;;;;10.42;84.75;103099.94;6171087;28;20225;-76
2022/11/12 01:34:53;;;;;;;9.03;4.47;;;;;;;10.47;84.19;103102.41;6183125;28;20757;-76
2022/11/12 01:38:34;;;;;;;9.33;5.90;;;;;;;10.49;84.05;103103.19;6178279;28;20242;-75
2022/11/12 01:42:12;;;;;;;9.77;5.60;;;;;;;10.51;82.94;103107.56;6174189;28;20229;-76
2022/11/12 01:45:53;;;;;;;6.97;5.97;;;;;;;10.46;83.65;103104.22;6166098;28;20249;-76
2022/11/12 01:49:39;;;;;;;7.10;5.20;;;;;;;10.48;83.19;103105.00;6184359;28;20238;-76
2022/11/12 01:53:22;;;;;;;6.60;4.23;;;;;;;10.48;82.64;103110.41;6174105;28;20237;-76
2022/11/12 01:57:03;;;;;;;5.70;4.50;;;;;;;10.49;82.90;103113.97;6181690;28;20241;-75
2022/11/12 02:00:42;;;;;;;7.87;4.40;;;;;;;10.69;82.99;103116.47;6170537;28;20340;-76
2022/11/12 02:04:22;;;;;;;7.23;4.80;;;;;;;10.83;81.59;103109.38;6184578;28;20230;-75
2022/11/12 02:08:04;;;;;;;5.83;4.67;;;;;;;10.91;80.98;103109.84;6179737;28;20352;-74
2022/11/12 02:11:44;;;;;;;4.63;4.20;;;;;;;10.95;80.57;103116.81;6183844;28;20230;-75
2022/11/12 02:15:24;;;;;;;5.33;4.10;;;;;;;11.04;80.65;103107.34;6185051;28;20241;-75
2022/11/12 02:19:05;;;;;;;5.27;4.40;;;;;;;10.98;79.85;103110.38;6187041;28;20225;-75
2022/11/12 02:22:46;;;;;;;6.47;4.67;;;;;;;10.92;79.47;103108.91;6188752;28;20832;-75
2022/11/12 02:26:27;;;;;;;8.33;4.77;;;;;;;10.81;79.51;103110.41;6181445;28;20248;-75
2022/11/12 02:30:07;;;;;;;5.47;4.60;;;;;;;10.63;80.48;103106.91;6179803;28;20616;-74
2022/11/12 02:33:46;;;;;;;5.83;4.40;;;;;;;10.64;79.58;103094.28;6180157;28;20241;-75
2022/11/12 02:37:25;;;;;;;9.30;5.50;;;;;;;10.66;80.23;103101.31;6181761;28;20225;-75
2022/11/12 02:41:06;;;;;;;6.57;4.13;;;;;;;10.67;79.84;103094.13;6175014;28;20221;-74
2022/11/12 02:44:45;;;;;;;8.83;4.83;;;;;;;10.56;79.74;103104.59;6192507;28;20237;-75
2022/11/12 02:48:25;;;;;;;8.27;5.27;;;;;;;10.49;80.14;103103.19;6188354;28;20258;-76
2022/11/12 02:52:04;;;;;;;9.13;5.77;;;;;;;10.34;80.85;103099.47;6183873;28;20232;-74
2022/11/12 02:55:44;;;;;;;8.17;6.73;;;;;;;10.24;81.38;103109.00;6180480;28;20234;-74
2022/11/12 02:59:25;;;;;;;7.60;4.50;;;;;;;10.18;81.75;103103.94;6193172;28;20225;-75
2022/11/12 03:03:04;;;;;;;6.83;4.97;;;;;;;10.04;82.52;103111.78;6185704;28;20257;-75
2022/11/12 03:06:43;;;;;;;5.87;4.40;;;;;;;9.99;82.95;103106.63;6180515;28;20535;-75
2022/11/12 03:10:23;;;;;;;10.50;5.47;;;;;;;9.92;83.39;103112.41;6180990;28;20221;-75
2022/11/12 03:14:03;;;;;;;7.37;4.40;;;;;;;9.87;83.51;103118.03;6178518;28;20225;-74
2022/11/12 03:17:43;;;;;;;5.80;5.00;;;;;;;9.77;84.00;103119.44;6178660;28;20299;-75
2022/11/12 03:21:23;;;;;;;8.77;4.70;;;;;;;9.84;84.12;103123.59;6173807;28;20241;-75
2022/11/12 03:25:02;;;;;;;6.10;4.00;;;;;;;9.82;84.02;103127.31;6179597;28;20239;-75
2022/11/12 03:28:41;;;;;;;9.47;4.93;;;;;;;9.62;84.38;103118.38;6179357;28;20234;-76
2022/11/12 03:32:21;;;;;;;6.10;4.53;;;;;;;9.63;84.39;103132.72;6178820;28;20230;-76
2022/11/12 03:36:01;;;;;;;6.60;5.20;;;;;;;9.62;84.56;103129.16;6180097;28;20237;-75
2022/11/12 03:39:41;;;;;;;6.80;4.83;;;;;;;9.70;84.83;103136.00;6181036;28;20668;-75
2022/11/12 03:43:20;;;;;;;6.47;4.20;;;;;;;9.59;84.57;103125.75;6182006;28;20230;-75
2022/11/12 03:46:59;;;;;;;6.57;4.50;;;;;;;9.44;85.25;103131.84;6180084;28;20252;-76
2022/11/12 03:50:39;;;;;;;5.50;4.13;;;;;;;9.21;85.94;103111.44;6175933;28;20234;-75
2022/11/12 03:54:19;;;;;;;5.43;4.77;;;;;;;9.22;86.38;103145.44;6186293;28;20234;-75
2022/11/12 03:57:59;;;;;;;4.13;3.17;;;;;;;9.25;86.26;103122.91;6182454;28;20233;-74
2022/11/12 04:01:38;;;;;;;8.27;4.23;;;;;;;9.24;86.11;103140.88;6175361;28;20254;-75
2022/11/12 04:09:18;;;;;;;5.90;4.00;;;;;;;8.82;87.22;103146.41;6181708;28;20226;-75
2022/11/12 04:32:57;;;;;;;6.17;5.10;;;;;;;8.41;87.94;103133.06;6178588;28;20234;-75
2022/11/12 04:36:37;;;;;;;6.97;4.23;;;;;;;8.62;86.81;103143.75;6175991;28;20900;-75
2022/11/12 04:48:14;;;;;;;5.70;3.73;;;;;;;8.43;88.09;103152.66;6166309;28;20233;-74
2022/11/12 04:52:06;;;;;;;5.37;4.33;;;;;;;8.44;87.43;103149.06;6187245;28;20623;-75
2022/11/12 04:55:45;;;;;;;6.53;5.33;;;;;;;8.38;87.45;103150.22;6177657;28;20226;-75
2022/11/12 04:59:26;;;;;;;7.10;5.40;;;;;;;8.40;87.09;103144.75;6189553;28;20229;-75
2022/11/12 05:03:05;;;;;;;6.83;4.50;;;;;;;8.19;87.94;103153.69;6184588;28;20627;-75
2022/11/12 05:06:53;;;;;;;5.40;4.90;;;;;;;8.27;86.92;103156.97;6180952;28;20884;-75
2022/11/12 05:10:33;;;;;;;7.03;4.90;;;;;;;8.41;86.77;103147.38;6176660;28;20241;-75
2022/11/12 05:14:13;;;;;;;8.60;4.47;;;;;;;8.07;87.79;103157.78;6190144;28;20624;-74
2022/11/12 05:17:54;;;;;;;11.50;5.40;;;;;;;7.93;87.16;103131.50;6176724;28;20241;-74
2022/11/12 05:25:30;;;;;;;4.93;4.10;;;;;;;8.09;86.44;103137.97;6174439;28;20241;-73
2022/11/12 05:29:10;;;;;;;8.93;4.87;;;;;;;7.98;87.29;103144.75;6186911;28;20231;-74
2022/11/12 05:32:49;;;;;;;8.43;5.53;;;;;;;7.99;86.46;103138.41;6181515;28;20242;-75
2022/11/12 05:36:30;;;;;;;6.23;5.20;;;;;;;7.96;86.66;103157.34;6180865;28;20606;-75
2022/11/12 05:40:13;;;;;;;6.40;5.27;;;;;;;8.06;86.87;103138.13;6180048;28;20226;-74
2022/11/12 05:43:52;;;;;;;8.40;5.83;;;;;;;8.12;86.25;103144.16;6178935;28;20233;-75
2022/11/12 05:47:31;;;;;;;8.20;5.20;;;;;;;8.06;86.61;103151.53;6188113;28;20755;-75
2022/11/12 05:51:12;;;;;;;9.20;5.97;;;;;;;8.09;85.60;103155.91;6172207;28;20226;-74
2022/11/12 05:54:53;;;;;;;4.90;4.40;;;;;;;8.00;85.56;103161.66;6181984;28;20229;-74
2022/11/12 05:58:35;;;;;;;5.53;4.33;;;;;;;8.00;85.83;103149.13;6171687;28;20503;-74
2022/11/12 06:02:14;;;;;;;8.07;4.97;;;;;;;8.00;86.15;103161.66;6170878;28;20221;-74
2022/11/12 06:05:54;;;;;;;6.83;4.70;;;;;;;7.94;85.44;103164.59;6159350;28;20249;-75
2022/11/12 06:09:33;;;;;;;6.47;5.00;;;;;;;7.94;86.66;103169.97;6177129;28;20237;-76
2022/11/12 06:13:14;;;;;;;5.30;4.80;;;;;;;7.70;85.69;103173.63;6171573;28;20971;-76
2022/11/12 06:16:54;;;;;;;5.63;4.60;;;;;;;7.80;86.17;103181.25;6170557;28;20229;-76
2022/11/12 06:20:33;;;;;;;5.43;4.93;;;;;;;7.60;86.26;103166.88;6166936;28;20233;-74
2022/11/12 06:24:13;;;;;;;6.60;5.83;;;;;;;7.52;87.29;103188.69;6185838;28;20226;-75
2022/11/12 06:27:52;;;;;;;7.33;5.60;;;;;;;7.51;86.69;103173.50;6182744;28;20238;-75
2022/11/12 06:31:33;;;;;;;8.90;5.40;;;;;;;7.43;86.83;103186.34;6174718;28;20274;-74
2022/11/12 06:35:12;;;;;;;8.57;5.17;;;;;;;7.49;86.85;103186.09;6179337;28;21527;-75
2022/11/12 06:38:52;;;;;;;7.30;5.53;;;;;;;7.57;86.95;103188.50;6176894;28;20229;-74
2022/11/12 06:42:31;;;;;;;8.63;4.70;;;;;;;7.28;87.23;103183.38;6177953;28;20252;-75
2022/11/12 06:46:12;;;;;;;5.60;4.87;;;;;;;7.36;87.66;103183.97;6166970;28;20234;-75
2022/11/12 06:49:53;;;;;;;7.50;6.80;;;;;;;7.28;86.84;103194.13;6174100;28;20316;-74
2022/11/12 06:53:32;;;;;;;7.33;5.43;;;;;;;7.11;87.86;103194.75;6159113;28;20513;-74
2022/11/12 06:57:11;;;;;;;7.40;5.23;;;;;;;7.31;87.74;103220.81;6168777;28;20301;-74
2022/11/12 07:00:51;;;;;;;4.73;4.27;;;;;;;7.57;89.43;103200.09;6160804;28;20234;-75
2022/11/12 07:04:30;;;;;;;9.80;5.37;;;;;;;7.84;88.33;103211.56;6185610;28;20230;-75
2022/11/12 07:08:11;;;;;;;5.10;4.60;;;;;;;7.58;86.48;103217.97;6166039;28;20659;-75
2022/11/12 07:11:51;;;;;;;6.00;4.73;;;;;;;7.50;86.27;103208.44;6169386;28;20229;-75
2022/11/12 07:15:30;;;;;;;7.17;4.80;;;;;;;7.42;86.45;103208.75;6160366;28;20261;-76
2022/11/12 07:19:10;;;;;;;9.47;5.00;;;;;;;7.17;85.98;103206.13;6173991;28;20238;-76
2022/11/12 07:22:49;;;;;;;6.20;4.57;;;;;;;7.01;87.28;103215.66;6175489;28;20234;-75
2022/11/12 07:26:30;;;;;;;7.47;4.70;;;;;;;7.33;87.26;103238.59;6176432;28;20237;-75
2022/11/12 07:30:10;;;;;;;7.40;5.13;;;;;;;7.29;86.48;103220.88;6168839;28;20230;-75
2022/11/12 07:33:49;;;;;;;6.17;4.80;;;;;;;7.39;86.06;103229.44;6162601;28;20230;-76
2022/11/12 07:37:29;;;;;;;7.27;4.10;;;;;;;7.53;86.25;103229.81;6169953;28;20271;-76
2022/11/12 07:41:11;;;;;;;6.53;4.67;;;;;;;7.58;85.06;103225.13;6162344;28;20238;-76
2022/11/12 07:44:52;;;;;;;5.33;4.17;;;;;;;7.47;85.86;103217.50;6168834;28;20226;-76
2022/11/12 07:48:32;;;;;;;12.43;4.90;;;;;;;7.88;86.50;103229.31;6163282;28;21468;-78
2022/11/12 07:52:11;;;;;;;10.63;6.47;;;;;;;8.61;89.03;103224.47;6177914;28;20225;-71
2022/11/12 07:55:54;;;;;;;7.27;4.70;;;;;;;8.34;83.41;103231.03;6169928;28;20237;-75
2022/11/12 07:59:34;;;;;;;11.67;5.93;;;;;;;8.53;82.23;103215.88;6183107;28;20248;-71
2022/11/12 08:03:15;;;;;;;5.77;3.70;;;;;;;8.25;81.99;103229.59;6176122;28;20229;-77
2022/11/12 08:06:54;;;;;;;7.83;4.07;;;;;;;8.50;81.55;103232.13;6162414;28;20317;-77
2022/11/12 08:10:34;;;;;;;6.20;4.93;;;;;;;8.68;80.93;103226.81;6159604;28;21944;-77
2022/11/12 08:14:13;;;;;;;5.57;3.87;;;;;;;8.85;81.19;103226.97;6169282;28;20683;-78
2022/11/12 08:17:53;;;;;;;5.63;4.47;;;;;;;9.42;79.16;103239.63;6167119;28;20575;-79
2022/11/12 08:21:35;;;;;;;9.07;4.57;;;;;;;10.33;74.70;103221.75;6155822;28;20538;-76
2022/11/12 08:25:14;;;;;;;4.70;4.13;;;;;;;13.92;62.69;103216.94;6166245;28;20242;-78
2022/11/12 08:28:54;;;;;;;4.63;3.40;;;;;;;16.03;52.85;103217.41;6157832;28;20238;-78
2022/11/12 08:32:33;;;;;;;4.97;3.53;;;;;;;17.63;49.44;103236.72;6163855;28;20675;-78
2022/11/12 08:36:15;;;;;;;5.32;3.97;;;;;;;18.14;45.89;103235.13;6169609;28;20259;-76
2022/11/12 08:39:55;;;;;;;3.83;3.53;;;;;;;17.45;48.98;103237.16;6181029;28;20230;-78
2022/11/12 08:43:35;;;;;;;5.78;3.08;;;;;;;19.35;44.10;103221.94;6175984;28;20277;-78
2022/11/12 08:47:15;;;;;;;4.43;3.38;;;;;;;20.77;41.81;103239.78;6174078;28;20244;-78
2022/11/12 08:50:55;;;;;;;6.72;4.60;;;;;;;20.98;40.60;103235.00;6169412;28;21701;-78
2022/11/12 08:54:34;;;;;;;4.55;4.07;;;;;;;20.09;40.81;103250.78;6175765;28;20238;-79
2022/11/12 08:58:15;;;;;;;3.80;3.45;;;;;;;21.29;39.86;103247.53;6171103;28;20234;-81
2022/11/12 09:01:55;;;;;;;3.45;2.50;;;;;;;18.84;43.10;103239.13;6166089;28;20256;-81
2022/11/12 09:05:35;;;;;;;2.97;2.70;;;;;;;20.08;41.02;103252.66;6171710;28;20242;-79
2022/11/12 09:09:14;;;;;;;3.15;2.83;;;;;;;19.24;42.58;103246.59;6189878;28;20484;-80
2022/11/12 09:12:55;;;;;;;6.20;3.60;;;;;;;19.32;42.80;103235.84;6190120;28;20230;-79
2022/11/12 09:16:36;;;;;;;4.45;3.83;;;;;;;20.05;41.41;103250.16;6191170;28;20233;-81
2022/11/12 09:20:16;;;;;;;5.07;4.22;;;;;;;20.86;40.10;103243.53;6197921;28;20226;-81
2022/11/12 09:23:55;;;;;;;6.95;3.47;;;;;;;23.07;35.75;103234.03;6193595;28;20229;-82
2022/11/12 09:27:35;;;;;;;10.32;8.88;;;;;;;24.13;34.28;103244.66;6190139;28;20241;-82
2022/11/12 09:31:14;;;;;;;3.67;3.30;;;;;;;23.81;33.68;103237.97;6176715;28;20591;-81
2022/11/12 09:34:55;;;;;;;4.85;3.75;;;;;;;21.20;38.76;103247.53;6181010;28;20640;-82
2022/11/12 09:38:35;;;;;;;3.85;3.15;;;;;;;23.68;33.82;103236.69;6177306;28;20226;-81
2022/11/12 09:42:17;;;;;;;4.30;3.90;;;;;;;24.14;33.20;103238.13;6161006;28;20563;-84
2022/11/12 09:46:02;;;;;;;3.75;3.38;;;;;;;26.16;30.38;103241.66;6170643;28;20615;-80
2022/11/12 09:49:49;;;;;;;8.07;4.75;;;;;;;27.21;29.39;103241.72;6178563;28;20455;-81
2022/11/12 09:53:36;;;;;;;8.35;5.75;;;;;;;26.77;29.80;103238.84;6165622;28;20258;-82
2022/11/12 09:57:16;;;;;;;5.18;4.10;;;;;;;26.51;29.27;103232.78;6181420;28;20257;-83
2022/11/12 10:01:00;;;;;;;4.18;3.50;;;;;;;28.00;27.93;103241.06;6173636;28;20230;-81
2022/11/12 10:04:53;;;;;;;7.00;4.80;;;;;;;27.96;27.31;103251.69;6178248;28;20226;-82
2022/11/12 10:08:46;;;;;;;5.30;3.97;;;;;;;24.66;32.41;103238.78;6163005;28;20239;-78
2022/11/12 10:12:34;;;;;;;5.07;4.55;;;;;;;27.82;27.78;103235.91;6181345;28;20228;-82
2022/11/12 10:16:44;;;;;;;4.55;3.38;;;;;;;28.18;27.07;103231.25;6162148;28;20237;-79
2022/11/12 10:20:27;;;;;;;8.30;5.35;;;;;;;28.49;27.66;103239.31;6165011;28;20793;-77
2022/11/12 10:24:11;;;;;;;8.25;4.53;;;;;;;27.91;26.47;103247.75;6176617;28;20237;-75
2022/11/12 10:27:54;;;;;;;6.07;4.00;;;;;;;26.69;28.81;103247.19;6181123;28;20639;-73
2022/11/12 10:31:36;;;;;;;5.93;4.38;;;;;;;28.44;27.21;103247.38;6183890;28;20241;-89
2022/11/12 10:35:17;;;;;;;5.60;4.15;;;;;;;28.79;27.16;103263.16;6181434;28;20850;-81
2022/11/12 10:38:57;;;;;;;4.10;3.70;;;;;;;24.91;31.86;103266.22;6172118;28;20258;-84
2022/11/12 10:42:56;;;;;;;6.53;4.32;;;;;;;28.82;26.64;103253.56;6177437;28;20254;-80
2022/11/12 10:46:37;;;;;;;5.85;5.22;;;;;;;28.47;26.73;103266.44;6182269;28;20253;-77
2022/11/12 10:50:21;;;;;;;7.28;3.63;;;;;;;30.97;24.46;103255.94;6179792;28;20230;-81
2022/11/12 10:54:20;;;;;;;4.13;3.60;;;;;;;28.52;26.10;103243.63;6174233;28;20230;-75
2022/11/12 10:58:19;;;;;;;3.33;3.13;;;;;;;28.44;27.47;103239.03;6182636;28;20237;-74
2022/11/12 11:02:00;;;;;;;3.83;2.85;;;;;;;29.91;25.90;103251.06;6178091;28;20571;-76
2022/11/12 11:05:51;;;;;;;7.28;4.35;;;;;;;30.14;23.98;103237.69;6186627;28;20242;-79
2022/11/12 11:13:20;;;;;;;4.30;3.90;;;;;;;29.92;25.97;103242.50;6072201;23;20269;-62
2022/11/12 11:17:07;;;;;;;4.30;3.25;;;;;;;30.05;25.25;103236.13;6037322;29;20241;-63
2022/11/12 11:20:55;;;;;;;7.13;4.60;;;;;;;27.78;28.39;103231.78;6030488;29;20245;-63
2022/11/12 11:24:39;;;;;;;5.18;3.75;;;;;;;29.81;25.45;103225.53;6047208;29;20234;-62
2022/11/12 11:28:31;;;;;;;4.80;4.28;;;;;;;28.55;26.13;103223.78;6042095;29;20246;-62
2022/11/12 11:32:25;;;;;;;5.68;3.53;;;;;;;26.93;29.57;103220.19;6043687;29;20272;-62
2022/11/12 11:36:19;;;;;;;5.20;3.85;;;;;;;26.21;30.64;103215.16;6035572;29;20264;-61
2022/11/12 11:40:10;;;;;;;6.10;4.53;;;;;;;25.00;32.08;103228.44;6047673;29;20237;-61
2022/11/12 11:44:02;;;;;;;5.57;3.78;;;;;;;25.88;31.08;103216.34;6040819;29;20237;-60
2022/11/12 11:47:45;;;;;;;4.60;3.92;;;;;;;23.75;35.13;103230.38;6039009;29;20315;-62
2022/11/12 11:51:38;;;;;;;7.05;4.25;;;;;;;21.97;38.78;103231.66;6033547;29;20272;-62
2022/11/12 11:55:48;;;;;;;8.68;5.45;;;;;;;20.58;41.76;103226.94;6037617;29;20237;-60
2022/11/12 11:59:38;;;;;;;8.40;5.93;;;;;;;23.01;36.99;103231.91;6033940;29;20241;-61
2022/11/12 12:03:20;;;;;;;4.00;3.55;;;;;;;23.48;36.49;103225.06;6026611;29;20242;-60
2022/11/12 12:07:12;;;;;;;7.10;4.30;;;;;;;24.09;34.44;103227.63;6013535;29;20316;-62
2022/11/12 12:11:02;;;;;;;6.30;4.13;;;;;;;21.71;39.18;103237.00;6033573;29;20246;-63
2022/11/12 12:14:52;;;;;;;8.13;5.53;;;;;;;21.77;39.25;103235.50;6036398;29;20238;-63
2022/11/12 12:18:38;;;;;;;5.47;2.22;;;;;;;19.71;43.97;103235.94;6020811;29;20269;-62
2022/11/12 12:22:24;;;;;;;5.38;3.95;;;;;;;18.86;45.72;103237.13;6038093;29;20237;-60
2022/11/12 12:26:11;;;;;;;6.40;5.40;;;;;;;18.31;47.80;103240.06;6032362;29;20234;-61
2022/11/12 12:29:56;;;;;;;6.85;5.15;;;;;;;18.16;48.61;103225.84;6007140;29;20516;-61
2022/11/12 12:33:43;;;;;;;9.07;4.97;;;;;;;17.65;49.11;103229.25;6031435;29;21990;-74
2022/11/12 12:37:30;;;;;;;5.45;4.95;;;;;;;17.22;50.46;103227.22;6028157;29;20244;-75
2022/11/12 12:41:16;;;;;;;7.72;4.60;;;;;;;17.05;51.85;103213.16;6017706;29;20801;-75
2022/11/12 12:45:03;;;;;;;4.55;3.83;;;;;;;16.97;52.63;103213.78;6036076;29;20749;-75
2022/11/12 12:48:46;;;;;;;7.70;4.28;;;;;;;16.97;52.52;103202.88;6038292;29;20253;-74
2022/11/12 12:52:25;;;;;;;8.38;5.53;;;;;;;17.29;51.49;103197.59;6033952;29;20628;-74
2022/11/12 12:56:07;;;;;;;6.38;4.95;;;;;;;16.84;52.74;103193.91;6042515;29;20229;-75
2022/11/12 12:59:46;;;;;;;4.85;4.45;;;;;;;16.26;54.01;103194.78;6049673;29;20250;-74
2022/11/12 13:03:53;;;;;;;11.20;4.72;;;;;;;16.08;55.51;103177.13;6040570;29;20265;-75
2022/11/12 13:07:42;;;;;;;4.47;4.07;;;;;;;16.87;53.86;103188.25;6053756;29;20245;-74
2022/11/12 13:15:49;;;;;;;7.20;4.97;;;;;;;16.44;54.39;103177.03;6025823;29;20241;-74
2022/11/12 13:19:33;;;;;;;6.20;3.92;;;;;;;16.68;54.41;103177.94;6045269;29;20237;-72
2022/11/12 13:24:04;;;;;;;6.05;3.72;;;;;;;15.93;56.08;103168.28;6045770;29;20245;-75
2022/11/12 13:28:09;;;;;;;5.50;3.92;;;;;;;16.40;55.86;103166.50;6038067;29;20241;-74
2022/11/12 13:31:48;;;;;;;4.20;3.78;;;;;;;16.22;55.12;103165.19;6033301;29;20265;-74
2022/11/12 13:35:33;;;;;;;4.75;4.35;;;;;;;16.06;56.59;103170.06;6033224;29;20788;-74
2022/11/12 13:39:16;;;;;;;4.75;4.25;;;;;;;16.26;55.67;103161.25;6044253;29;20249;-74
2022/11/12 13:42:58;;;;;;;5.75;4.35;;;;;;;16.21;55.28;103156.16;6042140;29;20238;-74
2022/11/12 13:46:39;;;;;;;5.32;4.03;;;;;;;16.15;55.40;103150.31;6038399;29;20710;-73
2022/11/12 13:50:22;;;;;;;5.97;3.87;;;;;;;15.44;57.06;103155.66;6040996;29;20241;-74
2022/11/12 13:54:40;;;;;;;8.40;4.53;;;;;;;15.39;57.92;103153.28;6041894;29;20234;-74
2022/11/12 13:58:26;;;;;;;4.43;3.70;;;;;;;15.42;57.46;103150.31;6040655;29;20609;-74
2022/11/12 14:02:19;;;;;;;7.30;4.93;;;;;;;15.23;57.25;103151.78;6035766;29;20566;-74
2022/11/12 14:06:04;;;;;;;5.87;4.43;;;;;;;15.28;57.43;103150.47;6037832;29;20265;-74
2022/11/12 14:09:59;;;;;;;5.17;3.87;;;;;;;15.38;57.62;103146.09;6050280;29;20250;-75
2022/11/12 14:13:56;;;;;;;5.13;4.27;;;;;;;15.40;58.08;103143.25;6041808;29;20564;-74
2022/11/12 14:17:46;;;;;;;5.43;4.93;;;;;;;15.46;57.44;103137.44;6036890;29;20237;-73
2022/11/12 14:21:25;;;;;;;6.37;3.67;;;;;;;15.10;57.86;103138.22;6036535;29;20234;-75
2022/11/12 14:25:17;;;;;;;3.30;2.97;;;;;;;15.26;59.54;103133.41;6044189;29;20242;-74
2022/11/12 14:28:57;;;;;;;5.43;4.20;;;;;;;15.24;59.69;103146.22;6048301;29;20234;-75
2022/11/12 14:32:37;;;;;;;6.00;5.30;;;;;;;15.47;58.90;103129.16;6048504;29;20232;-73
2022/11/12 14:36:18;;;;;;;6.83;4.90;;;;;;;15.47;58.76;103142.75;6041606;29;20517;-74
2022/11/12 14:39:57;;;;;;;6.43;3.63;;;;;;;15.39;57.67;103147.84;6049049;29;20229;-74
2022/11/12 14:43:44;;;;;;;5.40;4.30;;;;;;;15.13;58.41;103149.72;6046902;29;20672;-74
2022/11/12 14:47:23;;;;;;;4.17;3.77;;;;;;;14.70;60.25;103145.59;6052410;29;20434;-75
2022/11/12 14:51:09;;;;;;;6.00;5.03;;;;;;;14.69;60.87;103151.97;6034987;29;20245;-74
2022/11/12 14:54:53;;;;;;;8.53;4.50;;;;;;;14.51;61.15;103155.09;6050124;29;20759;-75
2022/11/12 14:58:33;;;;;;;5.77;4.87;;;;;;;14.35;62.09;103149.88;6039314;29;20419;-74
2022/11/12 15:02:16;;;;;;;6.07;5.17;;;;;;;14.46;61.46;103136.41;6043191;29;20244;-74
2022/11/12 15:05:58;;;;;;;6.07;5.13;;;;;;;14.26;62.37;103148.63;6041202;29;20240;-74
2022/11/12 15:09:41;;;;;;;4.37;4.07;;;;;;;14.29;61.73;103151.16;6049454;29;20241;-74
2022/11/12 15:13:22;;;;;;;6.63;5.23;;;;;;;13.80;63.68;103144.53;6050854;29;20506;-74
2022/11/12 15:17:04;;;;;;;5.77;4.30;;;;;;;13.82;64.20;103148.00;6047818;29;20233;-74
2022/11/12 15:20:45;;;;;;;4.53;4.17;;;;;;;13.55;64.81;103145.28;6032275;29;20266;-73
2022/11/12 15:24:29;;;;;;;5.33;4.30;;;;;;;13.78;63.87;103132.94;6047359;29;20313;-75
2022/11/12 15:28:13;;;;;;;7.80;4.37;;;;;;;13.80;63.74;103146.38;6043739;29;20226;-75
2022/11/12 15:31:56;;;;;;;3.77;3.47;;;;;;;13.40;65.47;103135.44;6036101;29;20241;-74
2022/11/12 15:35:42;;;;;;;6.67;5.30;;;;;;;13.48;64.88;103124.06;6029370;29;20235;-74
2022/11/12 15:39:26;;;;;;;5.57;4.57;;;;;;;13.46;64.73;103132.31;6025121;29;20457;-74
2022/11/12 15:43:13;;;;;;;9.77;5.13;;;;;;;13.38;65.22;103140.06;6041250;29;20269;-75
2022/11/12 15:46:54;;;;;;;4.23;3.83;;;;;;;13.32;65.23;103145.00;6046827;29;20242;-75
2022/11/12 15:50:33;;;;;;;7.93;5.23;;;;;;;12.95;66.34;103143.75;6037549;29;20245;-75
2022/11/12 15:54:12;;;;;;;5.80;5.20;;;;;;;12.84;66.80;103132.69;6050376;29;20238;-74
2022/11/12 15:57:53;;;;;;;6.37;5.37;;;;;;;12.90;66.81;103137.72;6058074;29;20559;-74
2022/11/12 16:01:32;;;;;;;11.40;4.50;;;;;;;12.59;67.51;103130.66;6036992;29;20238;-75
2022/11/12 16:05:13;;;;;;;6.13;4.90;;;;;;;12.42;68.08;103130.78;6046258;29;20262;-73
2022/11/12 16:08:54;;;;;;;6.67;4.73;;;;;;;12.26;69.98;103129.97;6048383;29;20242;-75
2022/11/12 16:12:34;;;;;;;8.63;6.03;;;;;;;12.44;68.91;103130.69;6052404;29;20237;-74
2022/11/12 16:16:15;;;;;;;4.33;3.87;;;;;;;12.39;68.17;103141.78;6019956;29;20234;-74
2022/11/12 16:19:54;;;;;;;7.47;5.17;;;;;;;12.22;69.78;103135.66;6040831;29;20233;-73
2022/11/12 16:23:35;;;;;;;6.27;5.40;;;;;;;12.34;68.40;103140.34;6025738;29;20233;-72
2022/11/12 16:27:16;;;;;;;10.13;4.67;;;;;;;12.16;69.25;103145.00;6034028;29;20249;-74
2022/11/12 16:30:55;;;;;;;5.23;4.73;;;;;;;12.27;69.20;103145.22;6031033;29;20245;-74
2022/11/12 16:34:36;;;;;;;7.53;5.77;;;;;;;12.29;69.25;103145.13;6041253;29;20367;-73
2022/11/12 16:38:18;;;;;;;6.07;5.47;;;;;;;12.21;69.14;103147.44;6050559;29;20245;-76
2022/11/12 16:41:57;;;;;;;6.07;5.47;;;;;;;11.96;70.26;103140.78;6036253;29;21216;-74
2022/11/12 16:45:39;;;;;;;9.50;6.37;;;;;;;11.95;69.16;103160.63;6026708;29;20429;-74
2022/11/12 16:49:20;;;;;;;10.27;7.33;;;;;;;11.92;69.64;103157.25;6048049;29;20233;-74
2022/11/12 16:53:01;;;;;;;8.83;7.33;;;;;;;11.85;70.24;103155.84;6046007;29;20235;-74
2022/11/12 16:56:40;;;;;;;14.97;10.90;;;;;;;11.77;70.36;103155.44;6029493;29;20305;-74
2022/11/12 17:00:20;;;;;;;10.97;8.47;;;;;;;11.76;70.16;103167.22;6035638;29;20234;-74
2022/11/12 17:04:00;;;;;;;8.93;5.90;;;;;;;11.63;70.82;103166.13;6043736;29;20648;-73
2022/11/12 17:07:39;;;;;;;7.37;6.67;;;;;;;11.44;72.06;103169.00;6049718;29;20538;-74
2022/11/12 17:11:20;;;;;;;7.17;6.47;;;;;;;11.57;71.77;103172.75;6032303;29;20233;-74
2022/11/12 17:14:59;;;;;;;9.07;5.77;;;;;;;11.48;70.90;103166.97;6042561;29;20225;-73
2022/11/12 17:18:39;;;;;;;8.07;6.10;;;;;;;11.37;72.04;103159.47;6039880;29;20246;-74
2022/11/12 17:22:19;;;;;;;7.63;6.37;;;;;;;11.25;71.74;103165.56;6039620;29;20230;-74
2022/11/12 17:26:02;;;;;;;6.57;5.70;;;;;;;11.23;72.14;103157.56;6028551;29;20232;-72
2022/11/12 17:29:42;;;;;;;12.33;6.37;;;;;;;11.21;72.24;103153.19;6042105;29;20644;-74
2022/11/12 17:33:22;;;;;;;9.00;5.87;;;;;;;11.10;72.25;103156.47;6045302;29;20475;-74
2022/11/12 17:37:01;;;;;;;14.33;7.53;;;;;;;10.99;73.85;103145.38;6034439;29;20237;-74
2022/11/12 17:40:41;;;;;;;8.97;8.00;;;;;;;11.04;73.10;103148.72;6029450;29;20234;-73
2022/11/12 17:44:20;;;;;;;12.53;8.60;;;;;;;10.91;74.37;103136.81;6043907;29;20222;-73
2022/11/12 17:48:01;;;;;;;12.40;9.00;;;;;;;10.89;74.78;103136.03;6034805;29;20234;-75
2022/11/12 17:51:40;;;;;;;9.57;7.23;;;;;;;10.85;74.37;103138.97;6029231;29;20367;-72
2022/11/12 17:55:20;;;;;;;11.77;8.10;;;;;;;10.70;75.47;103134.44;6038794;29;20233;-74
2022/11/12 17:58:59;;;;;;;9.73;6.93;;;;;;;10.33;76.70;103138.16;6041580;29;20254;-73
2022/11/12 18:02:39;;;;;;;13.70;8.33;;;;;;;10.40;76.82;103140.47;6035271;29;20287;-73